sensor_id;sensor_type;location;lat;lon;timestamp;pressure;altitude;pressure_sealevel;temperature;humidity
79048;BME280;68680;50.764;6.120;2024-02-23T00:01:24;96983.22;;;5.40;nan
79048;BME280;68680;50.764;6.120;2024-02-23T00:03:52;96983.81;;;5.20;nan
79048;BME280;68680;50.764;6.120;2024-02-23T00:06:17;96987.41;;;5.35;nan
79048;BME280;68680;50.764;6.120;2024-02-23T00:08:43;96996.03;;;5.26;nan
79048;BME280;68680;50.764;6.120;2024-02-23T00:11:10;97005.69;;;5.15;nan
79048;BME280;68680;50.764;6.120;2024-02-23T00:13:36;96994.56;;;5.13;nan
79048;BME280;68680;50.764;6.120;2024-02-23T00:16:02;97004.56;;;5.06;nan
79048;BME280;68680;50.764;6.120;2024-02-23T00:18:28;97008.78;;;5.07;nan
79048;BME280;68680;50.764;6.120;2024-02-23T00:20:55;97001.41;;;4.82;nan
79048;BME280;68680;50.764;6.120;2024-02-23T00:23:20;97000.47;;;4.72;nan
79048;BME280;68680;50.764;6.120;2024-02-23T00:25:46;97010.03;;;4.78;nan
79048;BME280;68680;50.764;6.120;2024-02-23T00:28:12;97008.81;;;4.85;nan
79048;BME280;68680;50.764;6.120;2024-02-23T00:30:38;97009.66;;;4.91;nan
79048;BME280;68680;50.764;6.120;2024-02-23T00:33:04;97014.66;;;4.87;nan
79048;BME280;68680;50.764;6.120;2024-02-23T00:35:30;97005.47;;;4.95;nan
79048;BME280;68680;50.764;6.120;2024-02-23T00:37:57;97013.06;;;4.86;nan
79048;BME280;68680;50.764;6.120;2024-02-23T00:40:23;97028.16;;;4.91;nan
79048;BME280;68680;50.764;6.120;2024-02-23T00:42:49;97028.84;;;4.81;nan
79048;BME280;68680;50.764;6.120;2024-02-23T00:45:14;97042.09;;;4.65;nan
79048;BME280;68680;50.764;6.120;2024-02-23T00:47:42;97044.47;;;4.44;nan
79048;BME280;68680;50.764;6.120;2024-02-23T00:50:09;97044.28;;;4.29;nan
79048;BME280;68680;50.764;6.120;2024-02-23T00:52:35;97046.78;;;4.19;nan
79048;BME280;68680;50.764;6.120;2024-02-23T00:55:03;97037.63;;;4.27;nan
79048;BME280;68680;50.764;6.120;2024-02-23T00:57:28;97043.34;;;4.19;nan
79048;BME280;68680;50.764;6.120;2024-02-23T00:59:54;97049.88;;;4.16;nan
79048;BME280;68680;50.764;6.120;2024-02-23T01:02:20;97062.91;;;4.23;nan
79048;BME280;68680;50.764;6.120;2024-02-23T01:04:46;97061.53;;;4.20;nan
79048;BME280;68680;50.764;6.120;2024-02-23T01:07:11;97054.19;;;4.22;nan
79048;BME280;68680;50.764;6.120;2024-02-23T01:09:37;97058.84;;;4.15;nan
79048;BME280;68680;50.764;6.120;2024-02-23T01:12:05;97062.50;;;4.14;nan
79048;BME280;68680;50.764;6.120;2024-02-23T01:14:31;97066.75;;;4.15;nan
79048;BME280;68680;50.764;6.120;2024-02-23T01:16:57;97066.81;;;4.20;nan
79048;BME280;68680;50.764;6.120;2024-02-23T01:19:23;97056.75;;;4.17;nan
79048;BME280;68680;50.764;6.120;2024-02-23T01:21:49;97050.81;;;4.27;nan
79048;BME280;68680;50.764;6.120;2024-02-23T01:24:14;97071.84;;;4.22;nan
79048;BME280;68680;50.764;6.120;2024-02-23T01:26:40;97076.88;;;4.40;nan
79048;BME280;68680;50.764;6.120;2024-02-23T01:29:07;97079.44;;;4.35;nan
79048;BME280;68680;50.764;6.120;2024-02-23T01:31:33;97087.53;;;4.28;nan
79048;BME280;68680;50.764;6.120;2024-02-23T01:33:59;97092.00;;;4.28;nan
79048;BME280;68680;50.764;6.120;2024-02-23T01:36:24;97080.72;;;4.32;nan
79048;BME280;68680;50.764;6.120;2024-02-23T01:38:50;97084.38;;;4.31;nan
79048;BME280;68680;50.764;6.120;2024-02-23T01:41:16;97086.63;;;4.39;nan
79048;BME280;68680;50.764;6.120;2024-02-23T01:43:42;97082.78;;;4.47;nan
79048;BME280;68680;50.764;6.120;2024-02-23T01:46:09;97090.31;;;4.38;nan
79048;BME280;68680;50.764;6.120;2024-02-23T01:48:35;97084.38;;;4.31;nan
79048;BME280;68680;50.764;6.120;2024-02-23T01:51:01;97090.97;;;4.29;nan
79048;BME280;68680;50.764;6.120;2024-02-23T01:53:27;97078.78;;;4.44;nan
79048;BME280;68680;50.764;6.120;2024-02-23T01:55:54;97097.19;;;4.39;nan
79048;BME280;68680;50.764;6.120;2024-02-23T01:58:21;97094.59;;;4.44;nan
79048;BME280;68680;50.764;6.120;2024-02-23T02:00:47;97100.69;;;4.45;nan
79048;BME280;68680;50.764;6.120;2024-02-23T02:03:14;97103.09;;;4.46;nan
79048;BME280;68680;50.764;6.120;2024-02-23T02:05:40;97095.81;;;4.37;nan
79048;BME280;68680;50.764;6.120;2024-02-23T02:08:07;97099.69;;;4.29;nan
79048;BME280;68680;50.764;6.120;2024-02-23T02:10:32;97090.00;;;4.35;nan
79048;BME280;68680;50.764;6.120;2024-02-23T02:13:02;97100.78;;;4.33;nan
79048;BME280;68680;50.764;6.120;2024-02-23T02:15:28;97097.97;;;4.40;nan
79048;BME280;68680;50.764;6.120;2024-02-23T02:17:54;97098.22;;;4.38;nan
79048;BME280;68680;50.764;6.120;2024-02-23T02:20:24;97097.69;;;4.36;nan
79048;BME280;68680;50.764;6.120;2024-02-23T02:22:50;97098.78;;;4.40;nan
79048;BME280;68680;50.764;6.120;2024-02-23T02:25:16;97098.66;;;4.30;nan
79048;BME280;68680;50.764;6.120;2024-02-23T02:27:42;97098.72;;;4.35;nan
79048;BME280;68680;50.764;6.120;2024-02-23T02:30:08;97081.13;;;4.41;nan
79048;BME280;68680;50.764;6.120;2024-02-23T02:32:36;97093.75;;;4.39;nan
79048;BME280;68680;50.764;6.120;2024-02-23T02:35:01;97092.06;;;4.33;nan
79048;BME280;68680;50.764;6.120;2024-02-23T02:37:29;97093.06;;;4.48;nan
79048;BME280;68680;50.764;6.120;2024-02-23T02:39:54;97088.53;;;4.44;nan
79048;BME280;68680;50.764;6.120;2024-02-23T02:42:20;97098.78;;;4.40;nan
79048;BME280;68680;50.764;6.120;2024-02-23T02:44:46;97103.63;;;4.48;nan
79048;BME280;68680;50.764;6.120;2024-02-23T02:47:12;97088.88;;;4.47;nan
79048;BME280;68680;50.764;6.120;2024-02-23T02:49:40;97103.34;;;4.45;nan
79048;BME280;68680;50.764;6.120;2024-02-23T02:52:05;97100.94;;;4.43;nan
79048;BME280;68680;50.764;6.120;2024-02-23T02:54:33;97110.44;;;4.44;nan
79048;BME280;68680;50.764;6.120;2024-02-23T02:56:58;97103.91;;;4.47;nan
79048;BME280;68680;50.764;6.120;2024-02-23T02:59:24;97115.88;;;4.54;nan
79048;BME280;68680;50.764;6.120;2024-02-23T03:01:50;97115.31;;;4.52;nan
79048;BME280;68680;50.764;6.120;2024-02-23T03:04:15;97100.13;;;4.60;nan
79048;BME280;68680;50.764;6.120;2024-02-23T03:06:41;97107.53;;;4.63;nan
79048;BME280;68680;50.764;6.120;2024-02-23T03:09:07;97099.56;;;4.58;nan
79048;BME280;68680;50.764;6.120;2024-02-23T03:11:35;97109.94;;;4.64;nan
79048;BME280;68680;50.764;6.120;2024-02-23T03:14:01;97108.09;;;4.65;nan
79048;BME280;68680;50.764;6.120;2024-02-23T03:16:27;97102.81;;;4.65;nan
79048;BME280;68680;50.764;6.120;2024-02-23T03:18:53;97103.34;;;4.67;nan
79048;BME280;68680;50.764;6.120;2024-02-23T03:21:18;97113.13;;;4.66;nan
79048;BME280;68680;50.764;6.120;2024-02-23T03:23:44;97112.94;;;4.73;nan
79048;BME280;68680;50.764;6.120;2024-02-23T03:26:10;97115.19;;;4.81;nan
79048;BME280;68680;50.764;6.120;2024-02-23T03:28:37;97106.88;;;4.72;nan
79048;BME280;68680;50.764;6.120;2024-02-23T03:31:03;97105.19;;;4.83;nan
79048;BME280;68680;50.764;6.120;2024-02-23T03:33:29;97101.47;;;4.84;nan
79048;BME280;68680;50.764;6.120;2024-02-23T03:35:54;97097.03;;;4.68;nan
79048;BME280;68680;50.764;6.120;2024-02-23T03:38:20;97107.13;;;4.71;nan
79048;BME280;68680;50.764;6.120;2024-02-23T03:40:46;97108.72;;;4.72;nan
79048;BME280;68680;50.764;6.120;2024-02-23T03:43:12;97102.38;;;4.73;nan
79048;BME280;68680;50.764;6.120;2024-02-23T03:45:39;97089.25;;;4.78;nan
79048;BME280;68680;50.764;6.120;2024-02-23T03:48:05;97100.06;;;4.76;nan
79048;BME280;68680;50.764;6.120;2024-02-23T03:50:31;97102.59;;;4.88;nan
79048;BME280;68680;50.764;6.120;2024-02-23T03:52:57;97101.28;;;4.69;nan
79048;BME280;68680;50.764;6.120;2024-02-23T03:55:23;97098.66;;;4.69;nan
79048;BME280;68680;50.764;6.120;2024-02-23T03:57:49;97091.81;;;4.73;nan
79048;BME280;68680;50.764;6.120;2024-02-23T04:00:17;97103.00;;;4.58;nan
79048;BME280;68680;50.764;6.120;2024-02-23T04:02:44;97108.09;;;4.65;nan
79048;BME280;68680;50.764;6.120;2024-02-23T04:05:10;97118.59;;;4.60;nan
79048;BME280;68680;50.764;6.120;2024-02-23T04:07:35;97116.19;;;4.58;nan
79048;BME280;68680;50.764;6.120;2024-02-23T04:10:01;97123.28;;;4.74;nan
79048;BME280;68680;50.764;6.120;2024-02-23T04:12:27;97129.06;;;4.71;nan
79048;BME280;68680;50.764;6.120;2024-02-23T04:14:53;97125.34;;;4.72;nan
79048;BME280;68680;50.764;6.120;2024-02-23T04:17:19;97128.31;;;4.76;nan
79048;BME280;68680;50.764;6.120;2024-02-23T04:19:46;97128.31;;;4.76;nan
79048;BME280;68680;50.764;6.120;2024-02-23T04:22:12;97119.84;;;4.74;nan
79048;BME280;68680;50.764;6.120;2024-02-23T04:24:39;97123.16;;;4.86;nan
79048;BME280;68680;50.764;6.120;2024-02-23T04:27:06;97119.38;;;4.77;nan
79048;BME280;68680;50.764;6.120;2024-02-23T04:29:32;97121.91;;;4.88;nan
79048;BME280;68680;50.764;6.120;2024-02-23T04:31:59;97125.75;;;4.81;nan
79048;BME280;68680;50.764;6.120;2024-02-23T04:34:24;97113.34;;;4.81;nan
79048;BME280;68680;50.764;6.120;2024-02-23T04:36:51;97135.38;;;4.70;nan
79048;BME280;68680;50.764;6.120;2024-02-23T04:39:17;97120.81;;;4.68;nan
79048;BME280;68680;50.764;6.120;2024-02-23T04:41:43;97122.53;;;4.79;nan
79048;BME280;68680;50.764;6.120;2024-02-23T04:44:09;97111.16;;;4.78;nan
79048;BME280;68680;50.764;6.120;2024-02-23T04:46:35;97123.16;;;4.86;nan
79048;BME280;68680;50.764;6.120;2024-02-23T04:49:01;97123.03;;;4.76;nan
79048;BME280;68680;50.764;6.120;2024-02-23T04:51:27;97118.38;;;4.83;nan
79048;BME280;68680;50.764;6.120;2024-02-23T04:53:54;97110.75;;;4.86;nan
79048;BME280;68680;50.764;6.120;2024-02-23T04:56:21;97108.13;;;4.86;nan
79048;BME280;68680;50.764;6.120;2024-02-23T04:58:46;97108.19;;;4.91;nan
79048;BME280;68680;50.764;6.120;2024-02-23T05:01:12;97109.41;;;4.84;nan
79048;BME280;68680;50.764;6.120;2024-02-23T05:03:38;97109.16;;;4.85;nan
79048;BME280;68680;50.764;6.120;2024-02-23T05:06:05;97105.09;;;4.78;nan
79048;BME280;68680;50.764;6.120;2024-02-23T05:08:30;97112.31;;;4.82;nan
79048;BME280;68680;50.764;6.120;2024-02-23T05:11:00;97106.84;;;4.89;nan
79048;BME280;68680;50.764;6.120;2024-02-23T05:13:26;97112.13;;;4.89;nan
79048;BME280;68680;50.764;6.120;2024-02-23T05:15:54;97100.81;;;4.93;nan
79048;BME280;68680;50.764;6.120;2024-02-23T05:18:20;97107.31;;;4.86;nan
79048;BME280;68680;50.764;6.120;2024-02-23T05:20:46;97095.41;;;4.83;nan
79048;BME280;68680;50.764;6.120;2024-02-23T05:23:12;97096.19;;;4.84;nan
79048;BME280;68680;50.764;6.120;2024-02-23T05:25:38;97091.97;;;4.83;nan
79048;BME280;68680;50.764;6.120;2024-02-23T05:28:05;97087.97;;;4.80;nan
79048;BME280;68680;50.764;6.120;2024-02-23T05:30:31;97092.75;;;4.83;nan
79048;BME280;68680;50.764;6.120;2024-02-23T05:32:57;97083.19;;;4.77;nan
79048;BME280;68680;50.764;6.120;2024-02-23T05:35:22;97088.81;;;4.64;nan
79048;BME280;68680;50.764;6.120;2024-02-23T05:37:48;97080.97;;;4.69;nan
79048;BME280;68680;50.764;6.120;2024-02-23T05:40:14;97080.97;;;4.69;nan
79048;BME280;68680;50.764;6.120;2024-02-23T05:42:40;97072.91;;;4.59;nan
79048;BME280;68680;50.764;6.120;2024-02-23T05:45:08;97067.69;;;4.42;nan
79048;BME280;68680;50.764;6.120;2024-02-23T05:47:34;97058.56;;;4.33;nan
79048;BME280;68680;50.764;6.120;2024-02-23T05:50:00;97058.34;;;4.35;nan
79048;BME280;68680;50.764;6.120;2024-02-23T05:52:26;97050.66;;;4.33;nan
79048;BME280;68680;50.764;6.120;2024-02-23T05:54:51;97056.97;;;4.32;nan
79048;BME280;68680;50.764;6.120;2024-02-23T05:57:17;97048.81;;;4.34;nan
79048;BME280;68680;50.764;6.120;2024-02-23T05:59:43;97054.97;;;4.39;nan
79048;BME280;68680;50.764;6.120;2024-02-23T06:02:10;97046.47;;;4.37;nan
79048;BME280;68680;50.764;6.120;2024-02-23T06:04:36;97052.88;;;4.41;nan
79048;BME280;68680;50.764;6.120;2024-02-23T06:07:02;97044.56;;;4.33;nan
79048;BME280;68680;50.764;6.120;2024-02-23T06:09:27;97038.09;;;4.40;nan
79048;BME280;68680;50.764;6.120;2024-02-23T06:11:53;97046.00;;;4.40;nan
79048;BME280;68680;50.764;6.120;2024-02-23T06:14:19;97042.97;;;4.32;nan
79048;BME280;68680;50.764;6.120;2024-02-23T06:16:45;97046.19;;;4.34;nan
79048;BME280;68680;50.764;6.120;2024-02-23T06:19:12;97038.50;;;4.32;nan
79048;BME280;68680;50.764;6.120;2024-02-23T06:21:37;97028.22;;;4.31;nan
79048;BME280;68680;50.764;6.120;2024-02-23T06:24:04;97021.56;;;4.28;nan
79048;BME280;68680;50.764;6.120;2024-02-23T06:26:30;97026.16;;;4.38;nan
79048;BME280;68680;50.764;6.120;2024-02-23T06:28:55;97031.88;;;4.30;nan
79048;BME280;68680;50.764;6.120;2024-02-23T06:31:21;97027.94;;;4.32;nan
79048;BME280;68680;50.764;6.120;2024-02-23T06:33:47;97028.97;;;4.31;nan
79048;BME280;68680;50.764;6.120;2024-02-23T06:36:14;97024.78;;;4.30;nan
79048;BME280;68680;50.764;6.120;2024-02-23T06:38:40;97019.63;;;4.40;nan
79048;BME280;68680;50.764;6.120;2024-02-23T06:41:06;97013.41;;;4.30;nan
79048;BME280;68680;50.764;6.120;2024-02-23T06:43:31;97030.25;;;4.45;nan
79048;BME280;68680;50.764;6.120;2024-02-23T06:45:57;97039.38;;;4.38;nan
79048;BME280;68680;50.764;6.120;2024-02-23T06:48:24;97025.47;;;4.42;nan
79048;BME280;68680;50.764;6.120;2024-02-23T06:50:49;97007.28;;;4.46;nan
79048;BME280;68680;50.764;6.120;2024-02-23T06:53:16;97012.63;;;4.51;nan
79048;BME280;68680;50.764;6.120;2024-02-23T06:55:42;97021.22;;;4.41;nan
79048;BME280;68680;50.764;6.120;2024-02-23T06:58:08;97014.97;;;4.47;nan
79048;BME280;68680;50.764;6.120;2024-02-23T07:00:34;97011.63;;;4.35;nan
79048;BME280;68680;50.764;6.120;2024-02-23T07:02:59;97017.28;;;4.44;nan
79048;BME280;68680;50.764;6.120;2024-02-23T07:05:25;97021.91;;;4.53;nan
79048;BME280;68680;50.764;6.120;2024-02-23T07:07:51;97025.53;;;4.47;nan
79048;BME280;68680;50.764;6.120;2024-02-23T07:10:18;97024.56;;;4.53;nan
79048;BME280;68680;50.764;6.120;2024-02-23T07:12:44;97023.06;;;4.63;nan
79048;BME280;68680;50.764;6.120;2024-02-23T07:15:09;97021.91;;;4.75;nan
79048;BME280;68680;50.764;6.120;2024-02-23T07:17:35;97032.13;;;4.72;nan
79048;BME280;68680;50.764;6.120;2024-02-23T07:20:01;97029.25;;;4.73;nan
79048;BME280;68680;50.764;6.120;2024-02-23T07:22:27;97023.69;;;4.70;nan
79048;BME280;68680;50.764;6.120;2024-02-23T07:24:52;97034.78;;;4.72;nan
79048;BME280;68680;50.764;6.120;2024-02-23T07:27:20;97046.72;;;4.74;nan
79048;BME280;68680;50.764;6.120;2024-02-23T07:29:45;97042.56;;;4.83;nan
79048;BME280;68680;50.764;6.120;2024-02-23T07:32:11;97038.03;;;4.79;nan
79048;BME280;68680;50.764;6.120;2024-02-23T07:34:37;97029.50;;;4.93;nan
79048;BME280;68680;50.764;6.120;2024-02-23T07:37:03;97041.13;;;4.92;nan
79048;BME280;68680;50.764;6.120;2024-02-23T07:39:29;97050.63;;;4.93;nan
79048;BME280;68680;50.764;6.120;2024-02-23T07:41:54;97042.22;;;4.96;nan
79048;BME280;68680;50.764;6.120;2024-02-23T07:44:22;97049.66;;;5.00;nan
79048;BME280;68680;50.764;6.120;2024-02-23T07:46:47;97044.28;;;5.16;nan
79048;BME280;68680;50.764;6.120;2024-02-23T07:49:13;97062.72;;;5.11;nan
79048;BME280;68680;50.764;6.120;2024-02-23T07:51:39;97042.53;;;5.00;nan
79048;BME280;68680;50.764;6.120;2024-02-23T07:54:05;97048.22;;;5.14;nan
79048;BME280;68680;50.764;6.120;2024-02-23T07:56:30;97043.50;;;5.16;nan
79048;BME280;68680;50.764;6.120;2024-02-23T07:58:56;97047.06;;;5.31;nan
79048;BME280;68680;50.764;6.120;2024-02-23T08:01:23;97043.91;;;5.29;nan
79048;BME280;68680;50.764;6.120;2024-02-23T08:03:49;97051.88;;;5.34;nan
79048;BME280;68680;50.764;6.120;2024-02-23T08:06:15;97055.06;;;5.36;nan
79048;BME280;68680;50.764;6.120;2024-02-23T08:08:40;97067.28;;;5.43;nan
79048;BME280;68680;50.764;6.120;2024-02-23T08:11:06;97062.44;;;5.34;nan
79048;BME280;68680;50.764;6.120;2024-02-23T08:13:32;97063.06;;;5.42;nan
79048;BME280;68680;50.764;6.120;2024-02-23T08:15:58;97060.09;;;5.38;nan
79048;BME280;68680;50.764;6.120;2024-02-23T08:18:25;97071.09;;;5.52;nan
79048;BME280;68680;50.764;6.120;2024-02-23T08:20:51;97066.22;;;5.44;nan
79048;BME280;68680;50.764;6.120;2024-02-23T08:23:17;97065.56;;;5.53;nan
79048;BME280;68680;50.764;6.120;2024-02-23T08:25:43;97074.81;;;5.56;nan
79048;BME280;68680;50.764;6.120;2024-02-23T08:28:09;97073.25;;;5.60;nan
79048;BME280;68680;50.764;6.120;2024-02-23T08:30:35;97075.66;;;5.61;nan
79048;BME280;68680;50.764;6.120;2024-02-23T08:33:01;97076.41;;;5.57;nan
79048;BME280;68680;50.764;6.120;2024-02-23T08:35:28;97071.00;;;5.73;nan
79048;BME280;68680;50.764;6.120;2024-02-23T08:37:53;97064.13;;;5.72;nan
79048;BME280;68680;50.764;6.120;2024-02-23T08:40:19;97077.59;;;5.71;nan
79048;BME280;68680;50.764;6.120;2024-02-23T08:42:45;97062.25;;;5.68;nan
79048;BME280;68680;50.764;6.120;2024-02-23T08:45:11;97061.88;;;5.59;nan
79048;BME280;68680;50.764;6.120;2024-02-23T08:47:36;97055.94;;;5.74;nan
79048;BME280;68680;50.764;6.120;2024-02-23T08:50:03;97075.16;;;5.91;nan
79048;BME280;68680;50.764;6.120;2024-02-23T08:52:30;97053.78;;;5.98;nan
79048;BME280;68680;50.764;6.120;2024-02-23T08:54:55;97057.97;;;6.26;nan
79048;BME280;68680;50.764;6.120;2024-02-23T08:57:21;97053.56;;;5.99;nan
79048;BME280;68680;50.764;6.120;2024-02-23T08:59:47;97050.13;;;6.04;nan
79048;BME280;68680;50.764;6.120;2024-02-23T09:02:13;97044.09;;;6.13;nan
79048;BME280;68680;50.764;6.120;2024-02-23T09:04:39;97048.97;;;6.27;nan
79048;BME280;68680;50.764;6.120;2024-02-23T09:07:05;97055.16;;;6.47;nan
79048;BME280;68680;50.764;6.120;2024-02-23T09:09:32;97051.63;;;6.74;nan
79048;BME280;68680;50.764;6.120;2024-02-23T09:11:58;97059.00;;;6.67;nan
79048;BME280;68680;50.764;6.120;2024-02-23T09:14:24;97046.53;;;6.62;nan
79048;BME280;68680;50.764;6.120;2024-02-23T09:16:50;97056.53;;;6.50;nan
79048;BME280;68680;50.764;6.120;2024-02-23T09:19:16;97068.72;;;6.56;nan
79048;BME280;68680;50.764;6.120;2024-02-23T09:21:41;97058.13;;;6.51;nan
79048;BME280;68680;50.764;6.120;2024-02-23T09:24:08;97063.00;;;6.74;nan
79048;BME280;68680;50.764;6.120;2024-02-23T09:26:35;97073.31;;;6.76;nan
79048;BME280;68680;50.764;6.120;2024-02-23T09:29:01;97065.34;;;6.66;nan
79048;BME280;68680;50.764;6.120;2024-02-23T09:31:26;97067.22;;;6.70;nan
79048;BME280;68680;50.764;6.120;2024-02-23T09:33:52;97067.53;;;6.84;nan
79048;BME280;68680;50.764;6.120;2024-02-23T09:36:18;97055.56;;;6.71;nan
79048;BME280;68680;50.764;6.120;2024-02-23T09:38:44;97061.75;;;6.92;nan
79048;BME280;68680;50.764;6.120;2024-02-23T09:41:19;97066.25;;;6.91;nan
79048;BME280;68680;50.764;6.120;2024-02-23T09:43:47;97074.88;;;6.67;nan
79048;BME280;68680;50.764;6.120;2024-02-23T09:46:13;97076.72;;;6.66;nan
79048;BME280;68680;50.764;6.120;2024-02-23T09:48:39;97067.50;;;6.74;nan
79048;BME280;68680;50.764;6.120;2024-02-23T09:51:06;97082.88;;;6.77;nan
79048;BME280;68680;50.764;6.120;2024-02-23T09:53:36;97082.13;;;6.81;nan
79048;BME280;68680;50.764;6.120;2024-02-23T09:56:04;97083.69;;;6.82;nan
79048;BME280;68680;50.764;6.120;2024-02-23T09:58:30;97082.19;;;6.96;nan
79048;BME280;68680;50.764;6.120;2024-02-23T10:01:01;97079.25;;;6.93;nan
79048;BME280;68680;50.764;6.120;2024-02-23T10:03:28;97080.78;;;6.84;nan
79048;BME280;68680;50.764;6.120;2024-02-23T10:05:54;97084.50;;;6.83;nan
79048;BME280;68680;50.764;6.120;2024-02-23T10:08:20;97088.81;;;6.99;nan
79048;BME280;68680;50.764;6.120;2024-02-23T10:10:46;97098.13;;;7.12;nan
79048;BME280;68680;50.764;6.120;2024-02-23T10:13:12;97107.13;;;7.11;nan
79048;BME280;68680;50.764;6.120;2024-02-23T10:15:38;97108.50;;;7.23;nan
79048;BME280;68680;50.764;6.120;2024-02-23T10:18:06;97119.13;;;7.28;nan
79048;BME280;68680;50.764;6.120;2024-02-23T10:20:32;97133.75;;;7.36;nan
79048;BME280;68680;50.764;6.120;2024-02-23T10:22:58;97123.66;;;7.28;nan
79048;BME280;68680;50.764;6.120;2024-02-23T10:25:23;97123.13;;;7.26;nan
79048;BME280;68680;50.764;6.120;2024-02-23T10:27:49;97127.34;;;7.22;nan
79048;BME280;68680;50.764;6.120;2024-02-23T10:30:15;97111.28;;;7.54;nan
79048;BME280;68680;50.764;6.120;2024-02-23T10:32:41;97125.78;;;7.26;nan
79048;BME280;68680;50.764;6.120;2024-02-23T10:35:13;97120.28;;;7.53;nan
79048;BME280;68680;50.764;6.120;2024-02-23T10:37:42;97125.34;;;7.59;nan
79048;BME280;68680;50.764;6.120;2024-02-23T10:40:11;97125.88;;;7.61;nan
79048;BME280;68680;50.764;6.120;2024-02-23T10:42:38;97128.53;;;7.51;nan
79048;BME280;68680;50.764;6.120;2024-02-23T10:45:06;97135.34;;;7.37;nan
79048;BME280;68680;50.764;6.120;2024-02-23T10:47:33;97144.88;;;7.28;nan
79048;BME280;68680;50.764;6.120;2024-02-23T10:50:01;97148.03;;;7.30;nan
79048;BME280;68680;50.764;6.120;2024-02-23T10:52:29;97142.03;;;7.50;nan
79048;BME280;68680;50.764;6.120;2024-02-23T10:55:00;97153.94;;;7.47;nan
79048;BME280;68680;50.764;6.120;2024-02-23T10:57:27;97151.06;;;7.54;nan
79048;BME280;68680;50.764;6.120;2024-02-23T10:59:53;97140.19;;;7.55;nan
79048;BME280;68680;50.764;6.120;2024-02-23T11:02:22;97149.72;;;7.51;nan
79048;BME280;68680;50.764;6.120;2024-02-23T11:04:51;97149.19;;;7.54;nan
79048;BME280;68680;50.764;6.120;2024-02-23T11:07:20;97159.00;;;7.49;nan
79048;BME280;68680;50.764;6.120;2024-02-23T11:09:52;97157.66;;;7.46;nan
79048;BME280;68680;50.764;6.120;2024-02-23T11:12:23;97143.84;;;7.39;nan
79048;BME280;68680;50.764;6.120;2024-02-23T11:14:50;97157.13;;;7.39;nan
79048;BME280;68680;50.764;6.120;2024-02-23T11:17:19;97169.78;;;7.22;nan
79048;BME280;68680;50.764;6.120;2024-02-23T11:19:49;97162.13;;;7.40;nan
79048;BME280;68680;50.764;6.120;2024-02-23T11:22:15;97168.31;;;7.56;nan
79048;BME280;68680;50.764;6.120;2024-02-23T11:24:43;97151.84;;;7.49;nan
79048;BME280;68680;50.764;6.120;2024-02-23T11:27:14;97166.19;;;7.58;nan
79048;BME280;68680;50.764;6.120;2024-02-23T11:29:40;97151.81;;;7.39;nan
79048;BME280;68680;50.764;6.120;2024-02-23T11:32:13;97146.78;;;7.48;nan
79048;BME280;68680;50.764;6.120;2024-02-23T11:34:39;97152.09;;;7.53;nan
79048;BME280;68680;50.764;6.120;2024-02-23T11:37:09;97153.72;;;7.54;nan
79048;BME280;68680;50.764;6.120;2024-02-23T11:39:37;97153.25;;;7.77;nan
79048;BME280;68680;50.764;6.120;2024-02-23T11:42:04;97146.63;;;7.84;nan
79048;BME280;68680;50.764;6.120;2024-02-23T11:44:31;97158.31;;;8.04;nan
79048;BME280;68680;50.764;6.120;2024-02-23T11:46:58;97154.91;;;8.23;nan
79048;BME280;68680;50.764;6.120;2024-02-23T11:49:27;97154.91;;;8.13;nan
79048;BME280;68680;50.764;6.120;2024-02-23T11:51:53;97147.44;;;8.05;nan
79048;BME280;68680;50.764;6.120;2024-02-23T11:54:19;97154.09;;;7.98;nan
79048;BME280;68680;50.764;6.120;2024-02-23T11:56:45;97155.38;;;7.85;nan
79048;BME280;68680;50.764;6.120;2024-02-23T11:59:11;97147.69;;;7.99;nan
79048;BME280;68680;50.764;6.120;2024-02-23T12:01:38;97150.34;;;7.89;nan
79048;BME280;68680;50.764;6.120;2024-02-23T12:04:04;97137.13;;;8.09;nan
79048;BME280;68680;50.764;6.120;2024-02-23T12:06:30;97150.91;;;7.96;nan
79048;BME280;68680;50.764;6.120;2024-02-23T12:08:56;97148.00;;;8.12;nan
79048;BME280;68680;50.764;6.120;2024-02-23T12:11:22;97143.75;;;8.06;nan
79048;BME280;68680;50.764;6.120;2024-02-23T12:13:48;97148.25;;;8.01;nan
79048;BME280;68680;50.764;6.120;2024-02-23T12:16:14;97153.09;;;8.44;nan
79048;BME280;68680;50.764;6.120;2024-02-23T12:18:42;97141.38;;;8.60;nan
79048;BME280;68680;50.764;6.120;2024-02-23T12:21:09;97149.91;;;8.42;nan
79048;BME280;68680;50.764;6.120;2024-02-23T12:23:43;97150.41;;;8.39;nan
79048;BME280;68680;50.764;6.120;2024-02-23T12:26:10;97144.84;;;8.31;nan
79048;BME280;68680;50.764;6.120;2024-02-23T12:28:36;97150.38;;;8.24;nan
79048;BME280;68680;50.764;6.120;2024-02-23T12:31:04;97144.03;;;8.35;nan
79048;BME280;68680;50.764;6.120;2024-02-23T12:33:32;97137.63;;;8.11;nan
79048;BME280;68680;50.764;6.120;2024-02-23T12:35:59;97130.72;;;8.10;nan
79048;BME280;68680;50.764;6.120;2024-02-23T12:38:26;97132.56;;;7.99;nan
79048;BME280;68680;50.764;6.120;2024-02-23T12:40:52;97130.16;;;7.82;nan
79048;BME280;68680;50.764;6.120;2024-02-23T12:43:18;97131.50;;;7.90;nan
79048;BME280;68680;50.764;6.120;2024-02-23T12:45:44;97130.19;;;8.23;nan
79048;BME280;68680;50.764;6.120;2024-02-23T12:48:10;97126.22;;;8.20;nan
79048;BME280;68680;50.764;6.120;2024-02-23T12:50:36;97116.41;;;8.41;nan
79048;BME280;68680;50.764;6.120;2024-02-23T12:53:03;97111.88;;;8.57;nan
79048;BME280;68680;50.764;6.120;2024-02-23T12:55:29;97129.69;;;8.56;nan
79048;BME280;68680;50.764;6.120;2024-02-23T12:57:55;97130.47;;;8.52;nan
79048;BME280;68680;50.764;6.120;2024-02-23T13:00:21;97135.00;;;8.51;nan
79048;BME280;68680;50.764;6.120;2024-02-23T13:02:47;97118.78;;;8.22;nan
79048;BME280;68680;50.764;6.120;2024-02-23T13:05:13;97124.13;;;8.48;nan
79048;BME280;68680;50.764;6.120;2024-02-23T13:07:38;97119.06;;;8.46;nan
79048;BME280;68680;50.764;6.120;2024-02-23T13:10:07;97128.91;;;8.56;nan
79048;BME280;68680;50.764;6.120;2024-02-23T13:12:33;97127.03;;;8.46;nan
79048;BME280;68680;50.764;6.120;2024-02-23T13:14:59;97126.00;;;8.42;nan
79048;BME280;68680;50.764;6.120;2024-02-23T13:17:25;97129.13;;;8.29;nan
79048;BME280;68680;50.764;6.120;2024-02-23T13:19:51;97131.53;;;8.51;nan
79048;BME280;68680;50.764;6.120;2024-02-23T13:22:16;97127.03;;;8.56;nan
79048;BME280;68680;50.764;6.120;2024-02-23T13:24:42;97142.69;;;8.17;nan
79048;BME280;68680;50.764;6.120;2024-02-23T13:27:09;97140.28;;;7.91;nan